Pierre Part, Louisiana
Current Conditions -  °F | °C
As of 11:55 AM on Monday 24 Nov 2014 (Local Time) from KPTN Reporting Station
Clear Clear  
Wind Chill: 66°   Ceiling: Unl
Heat Index: 66°   Visibility: 10mi
Dew Point: 50°   Wind: 10mph
Humidity: 56%   Direction: 350°N
Pressure: 29.93"   Gusts: NA
Location:  29.96°N, 91.21°W
Report Text: KPTN 241755Z AUTO 35009KT 10SM CLR 19/10 A2993 RMK AO1 10190 20160 54000
Loading
Personal Weather Stations






























Interactive Weather Map New forecast layout! Learn more

10-Day Weather Forecast

Advertisements
Track Severe Weather on mobile